Overview Statistics Trail Chart Weather Telemetry Raw packets
 

This is the latest recevied weather packets stored in our database for station/object HG8GL-6. If no packets are shown the sender has not sent any weather packets the latest 10 day(s).

<< 1 2 3 4 5 6 >>
Time Temp. Humidity Pressure Rain* Wind** Luminosity Snow
1788633550 18.33° C 80% 1020 hPa 0 mm - - -
1788632921 18.33° C 80% 1021 hPa 0.25 mm - - -
1788632291 18.89° C 79% 1020 hPa 0.25 mm - - -
1788631660 18.89° C 78% 1020 hPa 0.25 mm - - -
1788631030 18.89° C 78% 1020 hPa 1.02 mm - - -
1788630400 18.89° C 75% 1019 hPa 1.02 mm - - -
1788629740 19.44° C 73% 1019 hPa 1.02 mm - - -
1788629171 19.44° C 71% 1019 hPa 0.76 mm - - -
1788629140 19.44° C 71% 1019 hPa 0.76 mm - - -
1788628510 20° C 67% 1019 hPa 0.76 mm - - -
1788627910 20.56° C 62% 1019 hPa 0.51 mm - - -
1788627310 21.67° C 52% 1019 hPa 0 mm - - -
1788626680 22.22° C 46% 1019 hPa 0 mm - - -
1788626080 22.22° C 45% 1019 hPa 0 mm - - -
1788625480 22.22° C 44% 1019 hPa 0 mm - - -
1788624880 22.22° C 44% 1019 hPa 0 mm - - -
1788624280 22.22° C 44% 1019 hPa 0 mm - - -
1788623680 22.22° C 44% 1019 hPa 0 mm - - -
1788623050 22.22° C 44% 1019 hPa 0 mm - - -
1788622450 22.22° C 44% 1019 hPa 0 mm - - -
1788621820 22.22° C 43% 1019 hPa 0 mm - - -
1788621220 22.22° C 43% 1019 hPa 0 mm - - -
1788620590 22.78° C 42% 1018 hPa 0 mm - - -
1788619990 22.78° C 42% 1018 hPa 0 mm - - -
1788619360 22.78° C 41% 1018 hPa 0 mm - - -

* Rain latest hour (hover to see other rain measurements)
** Current wind speed in m/s (hover to see current wind gust speed)